地図

経路データ

SID SEASON NUMBER BASIN SUBBASIN NAME ISO_TIME NATURE LAT LON WMO_WIND WMO_PRES WMO_AGENCY TRACK_TYPE DIST2LAND LANDFALL IFLAG USA_AGENCY USA_ATCF_ID USA_LAT USA_LON USA_RECORD USA_STATUS USA_WIND USA_PRES USA_SSHS USA_R34_NE USA_R34_SE USA_R34_SW USA_R34_NW USA_R50_NE USA_R50_SE USA_R50_SW USA_R50_NW USA_R64_NE USA_R64_SE USA_R64_SW USA_R64_NW USA_POCI USA_ROCI USA_RMW USA_EYE TOKYO_LAT TOKYO_LON TOKYO_GRADE TOKYO_WIND TOKYO_PRES TOKYO_R50_DIR TOKYO_R50_LONG TOKYO_R50_SHORT TOKYO_R30_DIR TOKYO_R30_LONG TOKYO_R30_SHORT TOKYO_LAND CMA_LAT CMA_LON CMA_CAT CMA_WIND CMA_PRES HKO_LAT HKO_LON HKO_CAT HKO_WIND HKO_PRES NEWDELHI_LAT NEWDELHI_LON NEWDELHI_GRADE NEWDELHI_WIND NEWDELHI_PRES NEWDELHI_CI NEWDELHI_DP NEWDELHI_POCI REUNION_LAT REUNION_LON REUNION_TYPE REUNION_WIND REUNION_PRES REUNION_TNUM REUNION_CI REUNION_RMW REUNION_R34_NE REUNION_R34_SE REUNION_R34_SW REUNION_R34_NW REUNION_R50_NE REUNION_R50_SE REUNION_R50_SW REUNION_R50_NW REUNION_R64_NE REUNION_R64_SE REUNION_R64_SW REUNION_R64_NW BOM_LAT BOM_LON BOM_TYPE BOM_WIND BOM_PRES BOM_TNUM BOM_CI BOM_RMW BOM_R34_NE BOM_R34_SE BOM_R34_SW BOM_R34_NW BOM_R50_NE BOM_R50_SE BOM_R50_SW BOM_R50_NW BOM_R64_NE BOM_R64_SE BOM_R64_SW BOM_R64_NW BOM_ROCI BOM_POCI BOM_EYE BOM_POS_METHOD BOM_PRES_METHOD NADI_LAT NADI_LON NADI_CAT NADI_WIND NADI_PRES WELLINGTON_LAT WELLINGTON_LON WELLINGTON_WIND WELLINGTON_PRES DS824_LAT DS824_LON DS824_STAGE DS824_WIND DS824_PRES TD9636_LAT TD9636_LON TD9636_STAGE TD9636_WIND TD9636_PRES TD9635_LAT TD9635_LON TD9635_WIND TD9635_PRES TD9635_ROCI NEUMANN_LAT NEUMANN_LON NEUMANN_CLASS NEUMANN_WIND NEUMANN_PRES MLC_LAT MLC_LON MLC_CLASS MLC_WIND MLC_PRES USA_GUST BOM_GUST BOM_GUST_PER REUNION_GUST REUNION_GUST_PER USA_SEAHGT USA_SEARAD_NE USA_SEARAD_SE USA_SEARAD_SW USA_SEARAD_NW STORM_SPEED STORM_DIR
1901010S16056 1901 7 SI MM NOT_NAMED 1901-01-10 00:00:00 TS -16.4000 55.7000 main 455 435 _________O____ -1 -16.4000 55.7000 TC 5 0
1901010S16056 1901 7 SI MM NOT_NAMED 1901-01-10 03:00:00 TS -16.6600 55.7100 main 425 405 _________P____ -1 -16.6600 55.7100 TC 5 178
1901010S16056 1901 7 SI MM NOT_NAMED 1901-01-10 06:00:00 TS -16.9000 55.7000 main 405 385 _________O____ -1 -16.9000 55.7000 TC 5 187
1901010S16056 1901 7 SI MM NOT_NAMED 1901-01-10 09:00:00 TS -17.1075 55.6575 main 385 371 _________P____ -1 -17.1075 55.6575 TC 4 193
1901010S16056 1901 7 SI MM NOT_NAMED 1901-01-10 12:00:00 TS -17.3000 55.6000 main 371 352 _________O____ -1 -17.3000 55.6000 TC 4 195
1901010S16056 1901 7 SI MM NOT_NAMED 1901-01-10 15:00:00 TS -17.5000 55.5500 main 352 341 _________P____ -1 -17.5000 55.5500 TC 4 193
1901010S16056 1901 7 SI MM NOT_NAMED 1901-01-10 18:00:00 TS -17.7000 55.5000 main 341 332 _________O____ -1 -17.7000 55.5000 TC 4 195
1901010S16056 1901 7 SI MM NOT_NAMED 1901-01-10 21:00:00 TS -17.8550 55.4574 main 323 314 _________P____ -1 -17.8550 55.4574 TC 4 193
1901010S16056 1901 7 SI MM NOT_NAMED 1901-01-11 00:00:00 TS -18.1000 55.4000 main 314 279 _________O____ -1 -18.1000 55.4000 TC 7 192
1901010S16056 1901 7 SI MM NOT_NAMED 1901-01-11 03:00:00 TS -18.5550 55.3001 main 268 212 _________P____ -1 -18.5550 55.3001 TC 10 191
1901010S16056 1901 7 SI MM NOT_NAMED 1901-01-11 06:00:00 TS -19.1000 55.2000 main 212 157 _________O____ -1 -19.1000 55.2000 TC 11 188
1901010S16056 1901 7 SI MM NOT_NAMED 1901-01-11 09:00:00 TS -19.6225 55.1424 main 157 102 _________P____ -1 -19.6225 55.1424 TC 10 186
1901010S16056 1901 7 SI MM NOT_NAMED 1901-01-11 12:00:00 TS -20.1000 55.1000 main 102 70 _________O____ -1 -20.1000 55.1000 TC 9 186
1901010S16056 1901 7 SI MM NOT_NAMED 1901-01-11 15:00:00 TS -20.4650 55.0499 main 64 38 _________P____ -1 -20.4650 55.0499 TC 7 188
1901010S16056 1901 7 SI MM NOT_NAMED 1901-01-11 18:00:00 TS -20.8000 55.0000 main 38 20 _________O____ -1 -20.8000 55.0000 TC 8 188
1901010S16056 1901 7 SI MM NOT_NAMED 1901-01-11 21:00:00 TS -21.2225 54.9426 main 33 33 _________P____ -1 -21.2225 54.9426 TC 8 187
1901010S16056 1901 7 SI MM NOT_NAMED 1901-01-12 00:00:00 TS -21.6000 54.9000 main 53 53 _________O____ -1 -21.6000 54.9000 TC 6 184
1901010S16056 1901 7 SI MM NOT_NAMED 1901-01-12 03:00:00 TS -21.8300 54.8999 main 69 69 _________P____ -1 -21.8300 54.8999 TC 4 0
1901010S16056 1901 7 SI MM NOT_NAMED 1901-01-12 06:00:00 TS -22.0000 54.9000 main 88 88 _________O____ -1 -22.0000 54.9000 TC 4 186
1901010S16056 1901 7 SI MM NOT_NAMED 1901-01-12 09:00:00 TS -22.2075 54.8575 main 108 108 _________P____ -1 -22.2075 54.8575 TC 4 192
1901010S16056 1901 7 SI MM NOT_NAMED 1901-01-12 12:00:00 TS -22.4000 54.8000 main 133 133 _________O____ -1 -22.4000 54.8000 TC 4 196
1901010S16056 1901 7 SI MM NOT_NAMED 1901-01-12 15:00:00 TS -22.5500 54.7500 main 147 147 _________P____ -1 -22.5500 54.7500 TC 3 196
1901010S16056 1901 7 SI MM NOT_NAMED 1901-01-12 18:00:00 TS -22.7000 54.7000 main 168 168 _________O____ -1 -22.7000 54.7000 TC 4 195
1901010S16056 1901 7 SI MM NOT_NAMED 1901-01-12 21:00:00 TS -22.9000 54.6425 main 192 192 _________P____ -1 -22.9000 54.6425 TC 4 192
1901010S16056 1901 7 SI MM NOT_NAMED 1901-01-13 00:00:00 TS -23.1000 54.6000 main 213 213 _________O____ -1 -23.1000 54.6000 TC 4 187
1901010S16056 1901 7 SI MM NOT_NAMED 1901-01-13 03:00:00 TS -23.2575 54.5925 main 234 234 _________P____ -1 -23.2575 54.5925 TC 3 0
1901010S16056 1901 7 SI MM NOT_NAMED 1901-01-13 06:00:00 TS -23.4000 54.6000 main 245 245 _________O____ -1 -23.4000 54.6000 TC 3 177
1901010S16056 1901 7 SI MM NOT_NAMED 1901-01-13 09:00:00 TS -23.5425 54.6000 main 256 256 _________P____ -1 -23.5425 54.6000 TC 3 0
1901010S16056 1901 7 SI MM NOT_NAMED 1901-01-13 12:00:00 TS -23.7000 54.6000 main 276 276 _________O____ -1 -23.7000 54.6000 TC 4 176
1901010S16056 1901 7 SI MM NOT_NAMED 1901-01-13 15:00:00 TS -23.9000 54.6075 main 297 297 _________P____ -1 -23.9000 54.6075 TC 4 0
1901010S16056 1901 7 SI MM NOT_NAMED 1901-01-13 18:00:00 TS -24.1000 54.6000 main 318 318 _________O____ -1 -24.1000 54.6000 TC 3 189
1901010S16056 1901 7 SI MM NOT_NAMED 1901-01-13 21:00:00 TS -24.2050 54.5500 main 329 329 _________P____ -1 -24.2050 54.5500 TC 3 196
1901010S16056 1901 7 SI MM NOT_NAMED 1901-01-14 00:00:00 TS -24.4000 54.5000 main 353 353 _________O____ -1 -24.4000 54.5000 TC 7 185
1901010S16056 1901 7 SI MM NOT_NAMED 1901-01-14 03:00:00 TS -24.8550 54.4850 main 407 407 _________P____ -1 -24.8550 54.4850 TC 10 179
1901010S16056 1901 7 SI MM NOT_NAMED 1901-01-14 06:00:00 TS -25.4000 54.5000 main 460 460 _________O____ -1 -25.4000 54.5000 TC 10 178
1901010S16056 1901 7 SI MM NOT_NAMED 1901-01-14 09:00:00 TS -25.8575 54.5350 main 515 515 _________P____ -1 -25.8575 54.5350 TC 9 175
1901010S16056 1901 7 SI MM NOT_NAMED 1901-01-14 12:00:00 TS -26.3000 54.6000 main 556 556 _________O____ -1 -26.3000 54.6000 TC 9 171
1901010S16056 1901 7 SI MM NOT_NAMED 1901-01-14 15:00:00 TS -26.7500 54.6851 main 599 599 _________P____ -1 -26.7500 54.6851 TC 9 169
1901010S16056 1901 7 SI MM NOT_NAMED 1901-01-14 18:00:00 TS -27.2000 54.8000 main 653 653 _________O____ -1 -27.2000 54.8000 TC 9 166
1901010S16056 1901 7 SI MM NOT_NAMED 1901-01-14 21:00:00 TS -27.6575 54.9499 main 707 706 _________P____ -1 -27.6575 54.9499 TC 9 164
1901010S16056 1901 7 SI MM NOT_NAMED 1901-01-15 00:00:00 TS -28.1000 55.1000 main 750 750 _________O____ -1 -28.1000 55.1000 TC 9 166
1901010S16056 1901 7 SI MM NOT_NAMED 1901-01-15 03:00:00 TS -28.5149 55.2002 main 794 794 _________P____ -1 -28.5149 55.2002 TC 8 167
1901010S16056 1901 7 SI MM NOT_NAMED 1901-01-15 06:00:00 TS -28.9000 55.3000 main 838 838 _________O____ -1 -28.9000 55.3000 TC 8 164
1901010S16056 1901 7 SI MM NOT_NAMED 1901-01-15 09:00:00 TS -29.2425 55.4352 main 871 871 _________P____ -1 -29.2425 55.4352 TC 8 159
1901010S16056 1901 7 SI MM NOT_NAMED 1901-01-15 12:00:00 TS -29.6000 55.6000 main 916 916 _________O____ -1 -29.6000 55.6000 TC 9 159
1901010S16056 1901 7 SI MM NOT_NAMED 1901-01-15 15:00:00 TS -30.0425 55.7925 main 960 960 _________P____ -1 -30.0425 55.7925 TC 10 159
1901010S16056 1901 7 SI MM NOT_NAMED 1901-01-15 18:00:00 TS -30.5000 56.0000 main 1017 1017 _________O____ -1 -30.5000 56.0000 TC 9 158
1901010S16056 1901 7 SI MM NOT_NAMED 1901-01-15 21:00:00 TS -30.8849 56.1930 main 1062 1062 _________P____ -1 -30.8849 56.1930 TC 9 157
1901010S16056 1901 7 SI MM NOT_NAMED 1901-01-16 00:00:00 TS -31.3000 56.4000 main 1108 1108 _________O____ -1 -31.3000 56.4000 TC 10 158
1901010S16056 1901 7 SI MM NOT_NAMED 1901-01-16 03:00:00 TS -31.8350 56.6351 main 1165 1165 _________P____ -1 -31.8350 56.6351 TC 12 159
1901010S16056 1901 7 SI MM NOT_NAMED 1901-01-16 06:00:00 TS -32.4000 56.9000 main 1235 1235 _________O____ -1 -32.4000 56.9000 TC 12 156
1901010S16056 1901 7 SI MM NOT_NAMED 1901-01-16 09:00:00 TS -32.9075 57.2001 main 1293 1293 _________P____ -1 -32.9075 57.2001 TC 11 153
1901010S16056 1901 7 SI MM NOT_NAMED 1901-01-16 12:00:00 TS -33.4000 57.5000 main 1352 1352 _________O____ -1 -33.4000 57.5000 TC 11 155
1901010S16056 1901 7 SI MM NOT_NAMED 1901-01-16 15:00:00 TS -33.9074 57.7505 main 1412 1412 _________P____ -1 -33.9074 57.7505 TC 11 157
1901010S16056 1901 7 SI MM NOT_NAMED 1901-01-16 18:00:00 TS -34.4000 58.0000 main 1470 1470 _________O____ -1 -34.4000 58.0000 TC 11 155
1901010S16056 1901 7 SI MM NOT_NAMED 1901-01-16 21:00:00 TS -34.8602 58.2867 main 1529 1529 _________P____ -1 -34.8602 58.2867 TC 10 151
1901010S16056 1901 7 SI MM NOT_NAMED 1901-01-17 00:00:00 TS -35.3000 58.6000 main 1578 _________O____ -1 -35.3000 58.6000 TC 10 150

IBTrACS Databaseについて

本データベースは、米国NOAAが公開する1842年以降の世界の熱帯低気圧のベストトラックデータアーカイブInternational Best Track Archive for Climate Stewardship (IBTrACS)を、ウェブで閲覧しやすい形式に変換したものです。

最終更新日:2021-12-03